Time;durP1;ratioP1;P1;durP2;ratioP2;P2;SDS_P1;SDS_P2;PMS_P1;PMS_P2;Temp;Humidity;BMP_temperature;BMP_pressure;BME280_temperature;BME280_humidity;BME280_pressure;Samples;Min_cycle;Max_cycle;Signal;HPM_P1;HPM_P2
2022/12/19 06:03:45;;;;;;;56.20;22.30;;;1.00;99.90;;;;;;4907018;29;20104;-77
2022/12/19 06:06:13;;;;;;;47.67;21.17;;;1.00;99.90;;;;;;4892900;29;20036;-79
2022/12/19 06:08:40;;;;;;;53.15;23.00;;;1.00;99.90;;;;;;4908534;29;20280;-78
2022/12/19 06:11:07;;;;;;;63.63;27.98;;;1.10;99.90;;;;;;4909789;29;20314;-79
2022/12/19 06:13:37;;;;;;;49.72;22.13;;;1.10;99.90;;;;;;4908764;29;20033;-77
2022/12/19 06:16:09;;;;;;;46.88;20.65;;;1.20;99.90;;;;;;4892417;29;20223;-76
2022/12/19 06:18:38;;;;;;;50.35;22.70;;;1.20;99.90;;;;;;4909156;29;20043;-77
2022/12/19 06:21:13;;;;;;;50.75;22.25;;;1.20;99.90;;;;;;4892268;29;20306;-77
2022/12/19 06:23:40;;;;;;;42.40;20.58;;;1.20;99.90;;;;;;4892024;29;20028;-78
2022/12/19 06:26:07;;;;;;;45.92;20.20;;;1.20;99.90;;;;;;4909479;29;20040;-78
2022/12/19 06:28:34;;;;;;;51.38;22.63;;;1.20;99.90;;;;;;4909027;29;20084;-78
2022/12/19 06:31:02;;;;;;;52.33;22.02;;;1.20;99.90;;;;;;4912578;29;20108;-78
2022/12/19 06:33:28;;;;;;;50.58;20.60;;;1.20;99.90;;;;;;4911622;29;20040;-78
2022/12/19 06:36:21;;;;;;;45.80;20.80;;;1.30;99.90;;;;;;4914517;29;20368;-77
2022/12/19 06:38:49;;;;;;;48.17;22.98;;;1.30;99.90;;;;;;4906840;29;20147;-77
2022/12/19 06:44:01;;;;;;;55.15;27.20;;;1.30;99.90;;;;;;4909605;29;20076;-75
2022/12/19 06:46:28;;;;;;;50.33;22.70;;;1.40;99.90;;;;;;4908922;29;20097;-76
2022/12/19 06:48:53;;;;;;;44.22;21.08;;;1.40;99.90;;;;;;4909077;29;20048;-74
2022/12/19 06:51:19;;;;;;;48.92;21.73;;;1.30;99.90;;;;;;4908702;29;20112;-77
2022/12/19 06:53:45;;;;;;;48.20;22.45;;;1.30;99.90;;;;;;4908374;29;20033;-76
2022/12/19 06:56:15;;;;;;;53.03;23.42;;;1.30;99.90;;;;;;4909075;29;20033;-77
2022/12/19 06:58:41;;;;;;;49.70;22.40;;;1.40;99.90;;;;;;4908405;29;20373;-76
2022/12/19 07:01:15;;;;;;;50.15;22.50;;;1.40;99.90;;;;;;4908444;29;20052;-76
2022/12/19 07:03:41;;;;;;;50.17;21.98;;;1.40;99.90;;;;;;4889086;29;20052;-77
2022/12/19 07:06:07;;;;;;;53.95;23.58;;;1.40;99.90;;;;;;4890121;29;20057;-76
2022/12/19 07:08:33;;;;;;;49.67;22.73;;;1.40;99.90;;;;;;4889331;29;20032;-78
2022/12/19 07:11:02;;;;;;;46.88;22.00;;;1.40;99.90;;;;;;4874390;29;20110;-78
2022/12/19 07:13:31;;;;;;;53.88;22.80;;;1.40;99.90;;;;;;4889904;29;20092;-76
2022/12/19 07:16:03;;;;;;;49.45;22.65;;;1.40;99.90;;;;;;4889553;29;20049;-80
2022/12/19 07:18:34;;;;;;;47.70;22.15;;;1.50;99.90;;;;;;4889435;29;20033;-76
2022/12/19 07:21:01;;;;;;;50.80;22.52;;;1.50;99.90;;;;;;4857823;29;20153;-76
2022/12/19 07:23:28;;;;;;;46.78;22.05;;;1.60;99.90;;;;;;4872904;29;20308;-78
2022/12/19 07:25:54;;;;;;;48.92;22.50;;;1.60;99.90;;;;;;4856993;29;20103;-77
2022/12/19 07:28:19;;;;;;;50.38;21.23;;;1.60;99.90;;;;;;4872883;29;20033;-76
2022/12/19 07:30:45;;;;;;;48.33;21.48;;;1.60;99.90;;;;;;4888899;29;20215;-76
2022/12/19 07:33:11;;;;;;;47.50;20.58;;;1.70;99.90;;;;;;4872322;29;20052;-76
2022/12/19 07:35:37;;;;;;;47.38;21.38;;;1.70;99.90;;;;;;4887905;29;20021;-76
2022/12/19 07:38:07;;;;;;;49.20;21.33;;;1.70;99.90;;;;;;4873216;29;20025;-75
2022/12/19 07:40:34;;;;;;;43.65;20.60;;;1.80;99.90;;;;;;4888453;29;20073;-75
2022/12/19 07:43:05;;;;;;;43.78;20.27;;;1.80;99.90;;;;;;4864979;29;20057;-75
2022/12/19 07:45:31;;;;;;;48.85;20.35;;;1.80;99.90;;;;;;4851629;29;20197;-75
2022/12/19 07:48:01;;;;;;;49.33;22.52;;;1.80;99.90;;;;;;4851627;29;20041;-75
2022/12/19 07:50:30;;;;;;;51.17;22.50;;;1.90;99.90;;;;;;4835267;29;20034;-75
2022/12/19 07:52:59;;;;;;;53.90;22.60;;;1.90;99.90;;;;;;4851791;29;20041;-75
2022/12/19 07:55:26;;;;;;;51.58;21.80;;;1.90;99.90;;;;;;4851932;29;20049;-75
2022/12/19 07:57:52;;;;;;;51.70;22.27;;;1.90;99.90;;;;;;4851325;29;20042;-75
2022/12/19 08:00:18;;;;;;;50.30;22.15;;;1.90;99.90;;;;;;4851074;29;20052;-75
2022/12/19 08:02:44;;;;;;;50.63;21.90;;;1.90;99.90;;;;;;4851244;29;20227;-76
2022/12/19 08:05:10;;;;;;;46.55;20.27;;;2.00;99.90;;;;;;4851359;29;20078;-76
2022/12/19 08:07:36;;;;;;;45.28;21.13;;;2.00;99.90;;;;;;4834934;29;20052;-75
2022/12/19 08:10:02;;;;;;;47.70;21.08;;;2.00;99.90;;;;;;4851282;29;20034;-75
2022/12/19 08:12:28;;;;;;;49.58;20.60;;;2.00;99.90;;;;;;4851685;29;20220;-75
2022/12/19 08:14:53;;;;;;;50.20;21.50;;;2.00;99.90;;;;;;4834678;29;20088;-75
2022/12/19 08:17:19;;;;;;;48.63;20.77;;;2.10;99.90;;;;;;4851524;29;20304;-75
2022/12/19 08:19:45;;;;;;;43.45;20.10;;;2.10;99.90;;;;;;4851169;29;20025;-76
2022/12/19 08:22:10;;;;;;;46.05;20.33;;;2.10;99.90;;;;;;4851233;29;20053;-75
2022/12/19 08:24:36;;;;;;;46.03;20.25;;;2.20;99.90;;;;;;4850772;29;20097;-76
2022/12/19 08:27:02;;;;;;;52.42;22.10;;;2.20;99.90;;;;;;4851397;29;20208;-75
2022/12/19 08:29:28;;;;;;;47.28;20.75;;;2.20;99.90;;;;;;4850923;29;20101;-75
2022/12/19 08:31:53;;;;;;;46.60;20.77;;;2.30;99.90;;;;;;4850618;29;20038;-76
2022/12/19 08:34:19;;;;;;;51.17;20.80;;;2.40;99.90;;;;;;4851010;29;20037;-75
2022/12/19 08:36:45;;;;;;;51.30;22.27;;;2.40;99.90;;;;;;4850298;29;20030;-75
2022/12/19 08:39:10;;;;;;;46.80;20.25;;;2.40;99.90;;;;;;4834570;29;20037;-75
2022/12/19 08:41:36;;;;;;;45.17;20.13;;;2.50;99.90;;;;;;4850397;29;20065;-75
2022/12/19 08:44:03;;;;;;;47.03;20.60;;;2.50;99.90;;;;;;4850352;29;20033;-75
2022/12/19 08:46:29;;;;;;;49.15;20.48;;;2.70;99.90;;;;;;4850432;29;20042;-76
2022/12/19 08:48:55;;;;;;;51.33;21.85;;;2.70;99.90;;;;;;4850087;29;20392;-75
2022/12/19 08:51:21;;;;;;;53.70;21.80;;;2.70;99.90;;;;;;4850448;29;20041;-75
2022/12/19 08:53:47;;;;;;;49.35;20.85;;;2.70;99.90;;;;;;4850338;29;20033;-75
2022/12/19 08:56:15;;;;;;;50.03;21.50;;;2.70;99.90;;;;;;4850798;29;20026;-75
2022/12/19 08:58:42;;;;;;;47.65;20.27;;;2.80;99.90;;;;;;4850348;29;20082;-74
2022/12/19 09:01:14;;;;;;;46.28;20.17;;;2.80;99.90;;;;;;4850649;29;20038;-74
2022/12/19 09:03:40;;;;;;;48.45;21.52;;;2.90;99.90;;;;;;4834117;29;20121;-75
2022/12/19 09:06:08;;;;;;;48.90;21.92;;;2.90;99.90;;;;;;4850766;29;20033;-75
2022/12/19 09:08:35;;;;;;;46.45;20.15;;;2.90;99.90;;;;;;4850382;29;20038;-76
2022/12/19 09:11:03;;;;;;;50.78;21.10;;;3.00;99.90;;;;;;4850815;29;20045;-75
2022/12/19 09:13:31;;;;;;;48.78;22.10;;;3.10;99.90;;;;;;4850832;29;20105;-77
2022/12/19 09:16:03;;;;;;;47.90;20.40;;;3.10;99.90;;;;;;4850563;29;20034;-74
2022/12/19 09:18:32;;;;;;;39.92;18.98;;;3.10;99.90;;;;;;4850751;29;20110;-74
2022/12/19 09:20:59;;;;;;;43.53;19.90;;;3.10;99.90;;;;;;4850624;29;20116;-75
2022/12/19 09:23:26;;;;;;;44.17;20.45;;;3.10;99.90;;;;;;4850867;29;20041;-74
2022/12/19 09:25:56;;;;;;;48.25;20.42;;;3.20;99.90;;;;;;4850159;29;20030;-74
2022/12/19 09:28:22;;;;;;;45.97;21.98;;;3.20;99.90;;;;;;4850523;29;20347;-74
2022/12/19 09:30:56;;;;;;;48.00;20.88;;;3.20;99.90;;;;;;4849655;29;20041;-74
2022/12/19 09:33:22;;;;;;;47.05;21.40;;;3.20;99.90;;;;;;4850178;29;20037;-74
2022/12/19 09:35:50;;;;;;;50.80;23.35;;;3.30;99.90;;;;;;4850055;29;20100;-74
2022/12/19 09:38:15;;;;;;;53.72;23.13;;;3.20;99.90;;;;;;4850305;29;20097;-74
2022/12/19 09:41:07;;;;;;;53.47;22.63;;;3.20;99.90;;;;;;4849867;29;20041;-74
2022/12/19 09:43:57;;;;;;;50.33;22.08;;;3.30;99.90;;;;;;4850624;29;20041;-74
2022/12/19 09:46:32;;;;;;;44.50;19.67;;;3.40;99.90;;;;;;4834261;29;20041;-74
2022/12/19 09:49:00;;;;;;;46.67;20.92;;;3.40;99.90;;;;;;4850946;29;20046;-75
2022/12/19 09:51:53;;;;;;;47.58;21.60;;;3.50;99.90;;;;;;4850348;29;20101;-74
2022/12/19 09:54:41;;;;;;;41.92;19.90;;;3.80;99.90;;;;;;4834393;29;20048;-75
2022/12/19 09:57:35;;;;;;;41.47;19.30;;;4.20;99.90;;;;;;4850663;29;20041;-74
2022/12/19 10:00:12;;;;;;;39.45;18.95;;;4.40;99.90;;;;;;4852606;29;20096;-74
2022/12/19 10:02:53;;;;;;;46.88;20.75;;;4.50;99.90;;;;;;4842550;29;20113;-75
2022/12/19 10:05:37;;;;;;;38.42;19.48;;;4.50;99.90;;;;;;4819919;29;20374;-74
2022/12/19 10:08:22;;;;;;;35.90;19.80;;;4.60;99.90;;;;;;4846434;29;20033;-74
2022/12/19 10:10:53;;;;;;;42.40;20.25;;;4.70;99.90;;;;;;4834915;29;20043;-74
2022/12/19 10:14:06;;;;;;;39.30;19.95;;;4.80;99.90;;;;;;4845384;29;20044;-74
2022/12/19 10:16:32;;;;;;;43.67;20.70;;;5.00;99.90;;;;;;4822685;29;20033;-76
2022/12/19 10:19:54;;;;;;;38.97;19.15;;;5.20;99.90;;;;;;4853554;29;20033;-76
2022/12/19 10:22:50;;;;;;;41.92;20.27;;;5.50;99.90;;;;;;4783073;30;20344;-76
2022/12/19 10:25:28;;;;;;;42.88;20.52;;;5.30;99.90;;;;;;4828481;29;20065;-75
2022/12/19 10:28:08;;;;;;;39.58;18.73;;;5.20;99.90;;;;;;4834761;29;20038;-76
2022/12/19 10:30:45;;;;;;;41.10;19.58;;;5.20;99.90;;;;;;4838273;29;20110;-76
2022/12/19 10:33:37;;;;;;;44.78;20.50;;;5.10;99.90;;;;;;4836617;29;20184;-76
2022/12/19 10:36:09;;;;;;;44.00;19.50;;;5.10;99.90;;;;;;4852915;29;20029;-76
2022/12/19 10:38:57;;;;;;;40.58;19.30;;;5.10;99.90;;;;;;4818310;29;20034;-76
2022/12/19 10:41:24;;;;;;;;;;;5.20;99.90;;;;;;4848582;29;20054;-75
2022/12/19 10:44:08;;;;;;;41.45;19.83;;;5.10;99.90;;;;;;4851643;29;19917;-76
2022/12/19 10:46:46;;;;;;;43.63;21.50;;;5.10;99.90;;;;;;4835698;29;20078;-74
2022/12/19 10:49:20;;;;;;;43.40;21.15;;;5.30;99.90;;;;;;4852547;29;20049;-75
2022/12/19 10:51:57;;;;;;;44.38;20.98;;;5.10;99.90;;;;;;4851939;29;20038;-74
2022/12/19 10:54:36;;;;;;;44.40;20.15;;;5.30;99.90;;;;;;4852834;29;20106;-75
2022/12/19 10:57:26;;;;;;;38.63;19.42;;;5.40;99.90;;;;;;4852529;29;20038;-75
2022/12/19 10:59:59;;;;;;;40.20;20.08;;;5.60;99.90;;;;;;4852343;29;20045;-74
2022/12/19 11:02:36;;;;;;;44.65;20.55;;;5.70;99.90;;;;;;4849295;29;20050;-75
2022/12/19 11:05:05;;;;;;;44.33;20.42;;;6.00;99.90;;;;;;4852311;29;20254;-76
2022/12/19 11:07:31;;;;;;;;;;;6.10;99.90;;;;;;4853134;29;20034;-79
2022/12/19 11:09:56;;;;;;;39.58;20.17;;;6.10;99.90;;;;;;4851249;29;19958;-77
2022/12/19 11:12:27;;;;;;;47.63;21.75;;;6.00;99.90;;;;;;4852097;29;20049;-75
2022/12/19 11:15:13;;;;;;;42.22;21.60;;;6.10;99.90;;;;;;4849911;29;20030;-74
2022/12/19 11:17:39;;;;;;;41.92;20.52;;;6.20;99.90;;;;;;4834668;29;20065;-76
2022/12/19 11:20:17;;;;;;;40.63;22.63;;;6.30;99.90;;;;;;4851923;29;20231;-76
2022/12/19 11:22:56;;;;;;;37.15;20.10;;;6.30;99.90;;;;;;4836049;29;20355;-75
2022/12/19 11:25:34;;;;;;;42.88;20.35;;;6.60;99.90;;;;;;4852707;29;20029;-75
2022/12/19 11:28:04;;;;;;;35.70;19.25;;;6.80;99.90;;;;;;4852699;29;20053;-75
2022/12/19 11:30:30;;;;;;;37.47;19.45;;;7.10;99.90;;;;;;4852369;29;20328;-74
2022/12/19 11:33:11;;;;;;;36.80;19.90;;;7.10;99.90;;;;;;4851978;29;20060;-74
2022/12/19 11:35:55;;;;;;;38.42;20.38;;;7.50;99.90;;;;;;4851283;29;20044;-74
2022/12/19 11:38:52;;;;;;;33.70;19.75;;;7.50;99.90;;;;;;4851850;29;20054;-73
2022/12/19 11:41:33;;;;;;;36.45;19.50;;;7.40;99.90;;;;;;4852228;29;20101;-74
2022/12/19 11:44:07;;;;;;;36.33;19.38;;;7.60;99.90;;;;;;4852073;29;20045;-74
2022/12/19 11:46:54;;;;;;;33.45;19.80;;;7.80;99.90;;;;;;4851607;29;20101;-74
2022/12/19 11:49:26;;;;;;;32.45;18.92;;;7.60;99.90;;;;;;4851643;29;20038;-73
2022/12/19 11:51:59;;;;;;;35.42;20.25;;;7.80;99.90;;;;;;4851764;29;20038;-74
2022/12/19 11:54:54;;;;;;;36.45;20.10;;;7.70;99.90;;;;;;4852045;29;20033;-74
2022/12/19 11:57:19;;;;;;;34.08;18.88;;;7.60;99.90;;;;;;4851626;29;20037;-74
2022/12/19 11:59:45;;;;;;;33.45;18.92;;;7.20;99.90;;;;;;4853983;29;20143;-73
2022/12/19 12:02:51;;;;;;;35.78;19.00;;;7.10;99.90;;;;;;4851262;29;20064;-74
2022/12/19 12:05:23;;;;;;;34.15;20.10;;;7.00;99.90;;;;;;4835574;29;20048;-74
2022/12/19 12:08:02;;;;;;;36.80;20.15;;;7.20;99.90;;;;;;4834754;29;20229;-75
2022/12/19 12:10:32;;;;;;;38.22;20.63;;;7.50;99.90;;;;;;4851479;29;20109;-75
2022/12/19 12:12:58;;;;;;;39.70;20.38;;;7.20;99.90;;;;;;4851056;29;20085;-72
2022/12/19 12:15:53;;;;;;;35.53;19.65;;;7.00;99.90;;;;;;4855340;29;20061;-75
2022/12/19 12:18:22;;;;;;;33.78;19.77;;;7.20;99.90;;;;;;4856859;29;20034;-73
2022/12/19 12:21:06;;;;;;;34.55;19.90;;;7.50;99.90;;;;;;4859166;29;20094;-72
2022/12/19 12:24:00;;;;;;;30.67;18.48;;;7.90;99.90;;;;;;4857551;29;20033;-73
2022/12/19 12:26:40;;;;;;;36.03;20.20;;;8.10;99.90;;;;;;4851701;29;20101;-73
2022/12/19 12:29:20;;;;;;;31.02;18.02;;;8.10;99.90;;;;;;4851398;29;20064;-73
2022/12/19 12:31:52;;;;;;;31.58;18.55;;;8.10;99.90;;;;;;4834584;29;20279;-73
2022/12/19 12:34:50;;;;;;;35.55;18.27;;;8.00;99.90;;;;;;4849355;29;20034;-73
2022/12/19 12:37:45;;;;;;;34.55;19.08;;;7.90;99.90;;;;;;4851302;29;20047;-74
2022/12/19 12:40:48;;;;;;;35.35;18.77;;;7.80;99.90;;;;;;4851128;29;20108;-74
2022/12/19 12:43:30;;;;;;;36.03;19.60;;;7.80;99.90;;;;;;4851176;29;20077;-73
2022/12/19 12:45:56;;;;;;;31.80;18.35;;;7.60;99.90;;;;;;4850233;29;20197;-74
2022/12/19 12:48:34;;;;;;;35.38;19.20;;;7.50;99.90;;;;;;4850863;29;20153;-75
2022/12/19 12:51:00;;;;;;;33.05;18.75;;;7.60;99.90;;;;;;4834732;29;20045;-74
2022/12/19 12:53:41;;;;;;;35.88;19.63;;;7.60;99.90;;;;;;4850679;29;20244;-74
2022/12/19 12:56:09;;;;;;;33.22;19.38;;;7.80;99.90;;;;;;4840921;29;20030;-73
2022/12/19 12:58:47;;;;;;;39.75;21.00;;;8.10;99.90;;;;;;4842675;29;20051;-75
2022/12/19 13:01:17;;;;;;;33.10;19.40;;;8.20;99.90;;;;;;4844934;29;20053;-73
2022/12/19 13:03:53;;;;;;;34.90;19.95;;;8.10;99.90;;;;;;4832733;29;20054;-75
2022/12/19 13:06:25;;;;;;;30.38;18.67;;;8.20;99.90;;;;;;4832851;29;20037;-74
2022/12/19 13:09:02;;;;;;;31.70;18.63;;;8.10;99.90;;;;;;4847688;29;20333;-73
2022/12/19 13:14:32;;;;;;;31.33;18.80;;;8.00;99.90;;;;;;4851111;29;20065;-74
2022/12/19 13:17:00;;;;;;;33.22;19.77;;;7.80;99.90;;;;;;4813133;29;20042;-73
2022/12/19 13:19:33;;;;;;;32.50;19.05;;;7.70;99.90;;;;;;4851121;29;20101;-72
2022/12/19 13:22:07;;;;;;;32.80;19.05;;;7.70;99.90;;;;;;4834225;29;20044;-73
2022/12/19 13:24:45;;;;;;;37.95;19.50;;;7.60;99.90;;;;;;4851114;29;20373;-73
2022/12/19 13:27:20;;;;;;;29.67;18.38;;;7.60;99.90;;;;;;4850680;29;20033;-73
2022/12/19 13:30:13;;;;;;;33.95;19.40;;;7.70;99.90;;;;;;4843519;29;20042;-73
2022/12/19 13:32:39;;;;;;;31.10;18.42;;;7.70;99.90;;;;;;4823251;29;20065;-75
2022/12/19 13:35:12;;;;;;;36.50;20.48;;;7.80;99.90;;;;;;4853431;29;20256;-75
2022/12/19 13:37:38;;;;;;;34.15;19.40;;;7.60;99.90;;;;;;4846153;29;20030;-75
2022/12/19 13:40:13;;;;;;;32.13;18.23;;;7.40;99.90;;;;;;4827027;29;20049;-75
2022/12/19 13:45:57;;;;;;;34.80;18.80;;;7.40;99.90;;;;;;4848506;29;20030;-76
2022/12/19 13:48:36;;;;;;;37.10;19.77;;;7.20;99.90;;;;;;4837679;29;20042;-76
2022/12/19 13:51:06;;;;;;;37.22;19.48;;;7.00;99.90;;;;;;4853577;29;20153;-76
2022/12/19 13:53:32;;;;;;;33.75;19.08;;;7.00;99.90;;;;;;4853915;29;20034;-77
2022/12/19 13:56:08;;;;;;;37.92;20.15;;;6.80;99.90;;;;;;4837248;29;20218;-76
2022/12/19 13:58:53;;;;;;;39.70;21.33;;;6.70;99.90;;;;;;4854397;29;20038;-75
2022/12/19 14:01:31;;;;;;;36.72;20.50;;;6.60;99.90;;;;;;4853812;29;20040;-75
2022/12/19 14:04:04;;;;;;;39.03;20.40;;;6.60;99.90;;;;;;4853504;29;20073;-75
2022/12/19 14:06:44;;;;;;;35.97;19.77;;;6.60;99.90;;;;;;4853785;29;20092;-75
2022/12/19 14:09:26;;;;;;;38.78;20.30;;;6.60;99.90;;;;;;4839676;29;20034;-75
2022/12/19 14:11:55;;;;;;;37.88;19.80;;;6.50;99.90;;;;;;4833973;29;20042;-75
2022/12/19 14:17:13;;;;;;;36.15;19.80;;;6.40;99.90;;;;;;4834805;29;20034;-75
2022/12/19 14:19:42;;;;;;;35.25;19.27;;;6.40;99.90;;;;;;4850193;29;20040;-75
2022/12/19 14:22:17;;;;;;;34.17;19.50;;;6.40;99.90;;;;;;4853406;29;20083;-75
2022/12/19 14:24:57;;;;;;;38.05;20.65;;;6.30;99.90;;;;;;4853201;29;20101;-75
2022/12/19 14:27:36;;;;;;;38.95;20.88;;;6.20;99.90;;;;;;4853569;29;20284;-76
2022/12/19 14:30:05;;;;;;;36.20;19.30;;;6.20;99.90;;;;;;4852912;29;20034;-75
2022/12/19 14:32:32;;;;;;;38.95;19.48;;;6.10;99.90;;;;;;4853329;29;20048;-75
2022/12/19 14:35:04;;;;;;;35.17;18.58;;;6.10;99.90;;;;;;4852940;29;20029;-75
2022/12/19 14:37:33;;;;;;;34.40;18.98;;;6.00;99.90;;;;;;4853405;29;20029;-75
2022/12/19 14:40:30;;;;;;;38.38;20.77;;;6.00;99.90;;;;;;4852921;29;20517;-77
2022/12/19 14:46:10;;;;;;;40.00;20.52;;;5.80;99.90;;;;;;4851997;29;20335;-75
2022/12/19 14:48:56;;;;;;;37.03;21.65;;;5.80;99.90;;;;;;4852939;29;20177;-75
2022/12/19 14:51:30;;;;;;;41.20;21.92;;;5.70;99.90;;;;;;4852671;29;20366;-75
2022/12/19 14:54:08;;;;;;;37.50;20.15;;;5.70;99.90;;;;;;4852881;29;20101;-75
2022/12/19 14:56:53;;;;;;;37.00;20.20;;;5.70;99.90;;;;;;4852880;29;20193;-75
2022/12/19 14:59:22;;;;;;;39.80;21.08;;;5.70;99.90;;;;;;4852697;29;20047;-75
2022/12/19 15:01:53;;;;;;;34.75;19.35;;;5.70;99.90;;;;;;4839365;29;20087;-76
2022/12/19 15:04:23;;;;;;;38.05;20.13;;;5.60;99.90;;;;;;4818312;29;20045;-75
2022/12/19 15:06:52;;;;;;;35.22;20.52;;;5.60;99.90;;;;;;4834381;29;20101;-74
2022/12/19 15:09:19;;;;;;;38.15;20.42;;;5.50;99.90;;;;;;4834154;29;20045;-75
2022/12/19 15:14:45;;;;;;;38.97;20.38;;;5.30;99.90;;;;;;4834486;29;20079;-76
2022/12/19 15:17:23;;;;;;;33.20;18.17;;;5.30;99.90;;;;;;4834244;29;20057;-76
2022/12/19 15:19:50;;;;;;;36.63;19.98;;;5.10;99.90;;;;;;4852395;29;20034;-73
2022/12/19 15:22:16;;;;;;;35.85;19.77;;;5.00;99.90;;;;;;4852458;29;20030;-74
2022/12/19 15:24:42;;;;;;;38.00;20.15;;;5.00;99.90;;;;;;4852416;29;20037;-73
2022/12/19 15:27:14;;;;;;;34.53;19.33;;;4.90;99.90;;;;;;4852870;29;20220;-72
2022/12/19 15:29:40;;;;;;;37.38;19.80;;;4.70;99.90;;;;;;4852360;29;20082;-73
2022/12/19 15:32:15;;;;;;;35.17;19.42;;;4.60;99.90;;;;;;4851940;29;20223;-73
2022/12/19 15:34:42;;;;;;;39.47;19.65;;;4.50;99.90;;;;;;4852129;29;20269;-73
2022/12/19 15:37:15;;;;;;;36.80;19.58;;;4.40;99.90;;;;;;4852344;29;20045;-72
2022/12/19 15:39:42;;;;;;;38.72;19.40;;;4.40;99.90;;;;;;4852501;29;20045;-72
2022/12/19 15:42:23;;;;;;;38.28;20.35;;;4.30;99.90;;;;;;4853830;29;20034;-77
2022/12/19 15:44:51;;;;;;;39.47;19.98;;;4.20;99.90;;;;;;4835484;29;20045;-75
2022/12/19 15:47:29;;;;;;;35.38;19.85;;;4.20;99.90;;;;;;4832879;29;20064;-76
2022/12/19 15:49:56;;;;;;;32.45;18.55;;;4.20;99.90;;;;;;4817186;29;20042;-76
2022/12/19 15:52:24;;;;;;;34.17;18.80;;;4.20;99.90;;;;;;4834012;29;20047;-76
2022/12/19 15:54:50;;;;;;;40.10;20.50;;;4.20;99.90;;;;;;4833311;29;20034;-76
2022/12/19 15:57:27;;;;;;;38.17;20.38;;;4.10;99.90;;;;;;4833269;29;20050;-76
2022/12/19 15:59:52;;;;;;;35.15;20.35;;;4.20;99.90;;;;;;4833977;29;20038;-79
2022/12/19 16:02:22;;;;;;;36.92;21.25;;;4.20;99.90;;;;;;4832860;29;20232;-76
2022/12/19 16:04:50;;;;;;;34.95;19.63;;;4.20;99.90;;;;;;4833380;29;20034;-75
2022/12/19 16:07:21;;;;;;;47.38;25.88;;;4.20;99.90;;;;;;4832462;29;20346;-76
2022/12/19 16:09:48;;;;;;;40.05;21.33;;;4.10;99.90;;;;;;4835683;29;20114;-75
2022/12/19 16:12:25;;;;;;;37.58;20.40;;;4.10;99.90;;;;;;4833449;29;20089;-75
2022/12/19 16:14:56;;;;;;;41.33;20.77;;;4.10;99.90;;;;;;4833014;29;20041;-79
2022/12/19 16:17:24;;;;;;;33.15;18.77;;;4.00;99.90;;;;;;4834549;29;20075;-76
2022/12/19 16:19:50;;;;;;;35.53;18.83;;;4.00;99.90;;;;;;4841512;29;20034;-79
2022/12/19 16:22:22;;;;;;;39.65;19.60;;;3.90;99.90;;;;;;4831962;29;20224;-74
2022/12/19 16:24:48;;;;;;;37.83;20.17;;;3.90;99.90;;;;;;4832823;29;20034;-76
2022/12/19 16:27:29;;;;;;;40.10;21.02;;;4.00;99.90;;;;;;4832971;29;20038;-75
2022/12/19 16:29:57;;;;;;;40.22;21.10;;;4.00;99.90;;;;;;4832544;29;20266;-75
2022/12/19 16:32:23;;;;;;;;;;;4.00;99.90;;;;;;4833787;29;20034;-77
2022/12/19 16:34:50;;;;;;;38.80;20.17;;;4.00;99.90;;;;;;4833083;29;19914;-75
2022/12/19 16:37:16;;;;;;;41.42;21.77;;;4.00;99.90;;;;;;4833315;29;20034;-75
2022/12/19 16:39:42;;;;;;;45.10;22.63;;;4.00;99.90;;;;;;4844015;29;20106;-73
2022/12/19 16:42:17;;;;;;;44.70;22.80;;;3.90;99.90;;;;;;4850866;29;20336;-74
2022/12/19 16:44:45;;;;;;;41.00;21.73;;;3.90;99.90;;;;;;4863104;29;20053;-75
2022/12/19 16:47:13;;;;;;;42.47;22.70;;;3.90;99.90;;;;;;4850980;29;20053;-76
2022/12/19 16:49:39;;;;;;;42.83;22.20;;;3.80;99.90;;;;;;4849979;29;20060;-75
2022/12/19 16:52:05;;;;;;;43.28;22.92;;;3.80;99.90;;;;;;4850703;29;20062;-74
2022/12/19 16:54:31;;;;;;;41.92;23.15;;;3.70;99.90;;;;;;4849856;29;20045;-71
2022/12/19 16:56:57;;;;;;;42.88;23.60;;;3.70;99.90;;;;;;4834439;29;20038;-74
2022/12/19 16:59:30;;;;;;;44.13;23.02;;;3.60;99.90;;;;;;4850805;29;20022;-75
2022/12/19 17:01:57;;;;;;;44.00;22.65;;;3.60;99.90;;;;;;4850028;29;20065;-74
2022/12/19 17:04:24;;;;;;;42.95;22.38;;;3.60;99.90;;;;;;4851219;29;20041;-75
2022/12/19 17:06:51;;;;;;;40.38;21.58;;;3.60;99.90;;;;;;4850416;29;20275;-75
2022/12/19 17:09:19;;;;;;;40.08;22.38;;;3.60;99.90;;;;;;4854051;29;20057;-76
2022/12/19 17:11:49;;;;;;;41.45;22.38;;;3.50;99.90;;;;;;4872925;29;20041;-76
2022/12/19 17:14:21;;;;;;;40.03;22.08;;;3.50;99.90;;;;;;4848986;29;20060;-75
2022/12/19 17:16:47;;;;;;;;;;;3.40;99.90;;;;;;4873705;29;20074;-76
2022/12/19 17:19:22;;;;;;;40.05;21.67;;;3.50;99.90;;;;;;4872438;29;20180;-77
2022/12/19 17:21:49;;;;;;;44.33;22.55;;;3.50;99.90;;;;;;4873357;29;20096;-77
2022/12/19 17:24:15;;;;;;;39.65;21.67;;;3.50;99.90;;;;;;4873336;29;20086;-73
2022/12/19 17:26:42;;;;;;;37.10;21.50;;;3.50;99.90;;;;;;4868752;29;20121;-74
2022/12/19 17:29:09;;;;;;;42.28;22.42;;;3.40;99.90;;;;;;4855426;29;20033;-73
2022/12/19 17:31:39;;;;;;;39.78;21.63;;;3.40;99.90;;;;;;4854495;29;20065;-74
2022/12/19 17:34:14;;;;;;;37.17;21.65;;;3.50;99.90;;;;;;4860320;29;20324;-74
2022/12/19 17:36:40;;;;;;;43.85;22.70;;;3.50;99.90;;;;;;4867604;29;20046;-78
2022/12/19 17:39:27;;;;;;;38.72;21.30;;;3.50;99.90;;;;;;4849319;29;20135;-73
2022/12/19 17:42:00;;;;;;;39.63;21.73;;;3.60;99.90;;;;;;4863549;29;20061;-75
2022/12/19 17:44:26;;;;;;;38.47;21.65;;;3.60;99.90;;;;;;4854221;29;20230;-74
2022/12/19 17:46:52;;;;;;;38.72;21.67;;;3.70;99.90;;;;;;4853791;29;20038;-75
2022/12/19 17:49:27;;;;;;;40.60;22.75;;;3.70;99.90;;;;;;4854132;29;20038;-75
2022/12/19 17:51:53;;;;;;;39.47;21.85;;;3.70;99.90;;;;;;4855783;29;20292;-75
2022/12/19 17:54:20;;;;;;;40.97;22.02;;;3.70;99.90;;;;;;4855303;29;20037;-74
2022/12/19 17:56:46;;;;;;;40.60;21.65;;;3.80;99.90;;;;;;4854281;29;20042;-75
2022/12/19 17:59:12;;;;;;;34.92;19.98;;;3.80;99.90;;;;;;4853555;29;20134;-76
2022/12/19 18:01:40;;;;;;;41.85;22.77;;;3.70;99.90;;;;;;4853859;29;20110;-77
2022/12/19 18:04:10;;;;;;;39.33;22.30;;;3.70;99.90;;;;;;4855150;29;20058;-76
2022/12/19 18:06:36;;;;;;;42.25;22.27;;;3.60;99.90;;;;;;4837588;29;20061;-77
2022/12/19 18:09:03;;;;;;;40.15;22.33;;;3.60;99.90;;;;;;4853386;29;20069;-74
2022/12/19 18:11:30;;;;;;;42.92;21.63;;;3.60;99.90;;;;;;4869698;29;20036;-77
2022/12/19 18:13:56;;;;;;;43.53;22.17;;;3.50;99.90;;;;;;4855322;29;20104;-77
2022/12/19 18:16:26;;;;;;;42.60;23.15;;;3.50;99.90;;;;;;4872097;29;20041;-76
2022/12/19 18:18:52;;;;;;;40.45;22.20;;;3.50;99.90;;;;;;4855917;29;20044;-77
2022/12/19 18:21:20;;;;;;;41.10;23.52;;;3.50;99.90;;;;;;4871807;29;20038;-77
2022/12/19 18:23:47;;;;;;;41.88;22.23;;;3.50;99.90;;;;;;4871962;29;20037;-78
2022/12/19 18:26:13;;;;;;;39.28;21.77;;;3.60;99.90;;;;;;4854793;29;20045;-78
2022/12/19 18:28:40;;;;;;;44.50;22.27;;;3.60;99.90;;;;;;4871947;29;20105;-76
2022/12/19 18:31:14;;;;;;;43.90;21.40;;;3.60;99.90;;;;;;4871103;29;20045;-77
2022/12/19 18:33:42;;;;;;;39.05;20.73;;;3.60;99.90;;;;;;4855179;29;20439;-76
2022/12/19 18:36:21;;;;;;;42.67;21.35;;;3.60;99.90;;;;;;4871390;29;20097;-80
2022/12/19 18:38:56;;;;;;;42.28;21.73;;;3.60;99.90;;;;;;4855301;29;20037;-79
2022/12/19 18:41:22;;;;;;;45.50;24.95;;;3.60;99.90;;;;;;4871786;29;20059;-78
2022/12/19 18:43:48;;;;;;;48.70;24.25;;;3.60;99.90;;;;;;4855403;29;20323;-77
2022/12/19 18:46:18;;;;;;;37.08;21.60;;;3.60;99.90;;;;;;4871383;29;20033;-77
2022/12/19 18:48:44;;;;;;;41.38;21.98;;;3.60;99.90;;;;;;4871337;29;20097;-74
2022/12/19 18:51:15;;;;;;;36.85;20.77;;;3.70;99.90;;;;;;4854819;29;20033;-76
2022/12/19 18:53:45;;;;;;;39.53;20.45;;;3.70;99.90;;;;;;4871478;29;20056;-76
2022/12/19 18:56:11;;;;;;;37.13;21.10;;;3.70;99.90;;;;;;4871042;29;20025;-76
2022/12/19 18:58:38;;;;;;;35.50;20.65;;;3.70;99.90;;;;;;4854604;29;20040;-76
2022/12/19 19:01:05;;;;;;;38.28;20.65;;;3.80;99.90;;;;;;4870761;29;20033;-77
2022/12/19 19:03:37;;;;;;;37.45;19.80;;;3.80;99.90;;;;;;4854446;29;20064;-77
2022/12/19 19:06:21;;;;;;;49.92;27.65;;;3.80;99.90;;;;;;4871945;29;20041;-76
2022/12/19 19:08:49;;;;;;;40.95;21.08;;;3.90;99.90;;;;;;4873050;29;20037;-75
2022/12/19 19:11:33;;;;;;;33.97;18.73;;;3.90;99.90;;;;;;4871240;29;20268;-77
2022/12/19 19:13:59;;;;;;;34.42;18.65;;;4.00;99.90;;;;;;4854353;29;20029;-77
2022/12/19 19:16:26;;;;;;;32.72;17.52;;;4.00;99.90;;;;;;4870941;29;20025;-73
2022/12/19 19:18:54;;;;;;;32.50;18.25;;;4.10;99.90;;;;;;4870970;29;20355;-74
2022/12/19 19:21:24;;;;;;;34.53;18.83;;;4.10;99.90;;;;;;4870581;29;20036;-73
2022/12/19 19:24:02;;;;;;;34.60;17.92;;;4.10;99.90;;;;;;4871078;29;20033;-74